createdAt,value
2023-03-30T00:00:43.103Z,11.50
2023-03-30T00:03:47.514Z,11.33
2023-03-30T00:06:50.772Z,10.55
2023-03-30T00:09:54.955Z,11.07
2023-03-30T00:12:58.046Z,10.75
2023-03-30T00:16:01.455Z,11.32
2023-03-30T00:19:03.980Z,9.50
2023-03-30T00:22:08.654Z,13.75
2023-03-30T00:25:14.593Z,14.25
2023-03-30T00:28:17.532Z,11.07
2023-03-30T00:31:20.570Z,13.68
2023-03-30T00:34:24.587Z,13.00
2023-03-30T00:37:27.703Z,12.77
2023-03-30T00:40:32.986Z,11.20
2023-03-30T00:43:35.598Z,12.43
2023-03-30T00:46:38.374Z,12.35
2023-03-30T00:49:42.037Z,15.37
2023-03-30T00:52:46.492Z,13.82
2023-03-30T00:55:51.620Z,12.10
2023-03-30T00:58:55.120Z,12.93
2023-03-30T01:01:57.788Z,13.52
2023-03-30T01:05:01.246Z,12.07
2023-03-30T01:08:07.737Z,11.43
2023-03-30T01:11:11.086Z,10.38
2023-03-30T01:14:15.620Z,10.20
2023-03-30T01:17:28.270Z,11.27
2023-03-30T01:20:54.992Z,12.27
2023-03-30T01:24:27.972Z,9.23
2023-03-30T01:28:09.264Z,8.55
2023-03-30T01:31:43.856Z,9.43
2023-03-30T01:35:08.729Z,10.15
2023-03-30T01:38:27.985Z,12.60
2023-03-30T01:41:59.248Z,11.57
2023-03-30T01:45:11.071Z,11.70
2023-03-30T01:48:35.882Z,11.15
2023-03-30T01:51:57.315Z,9.63
2023-03-30T01:55:14.963Z,12.80
2023-03-30T01:58:31.185Z,8.73
2023-03-30T02:01:38.377Z,10.77
2023-03-30T02:04:43.041Z,8.88
2023-03-30T02:07:52.621Z,8.20
2023-03-30T02:10:57.601Z,9.90
2023-03-30T02:14:01.559Z,12.30
2023-03-30T02:17:12.046Z,10.68
2023-03-30T02:20:17.656Z,11.07
2023-03-30T02:23:23.762Z,11.80
2023-03-30T02:26:29.455Z,11.20
2023-03-30T02:29:35.301Z,11.65
2023-03-30T02:32:46.496Z,9.68
2023-03-30T02:35:57.857Z,11.80
2023-03-30T02:39:19.445Z,9.80
2023-03-30T02:42:33.728Z,10.40
2023-03-30T02:45:46.163Z,12.68
2023-03-30T02:49:07.630Z,9.52
2023-03-30T02:52:24.465Z,9.18
2023-03-30T02:55:47.408Z,9.15
2023-03-30T02:59:04.112Z,9.63
2023-03-30T03:02:15.400Z,11.23
2023-03-30T03:05:21.106Z,8.77
2023-03-30T03:08:25.486Z,11.77
2023-03-30T03:11:28.294Z,12.37
2023-03-30T03:14:30.795Z,10.30
2023-03-30T03:17:36.676Z,8.85
2023-03-30T03:20:40.317Z,13.15
2023-03-30T03:23:43.237Z,13.70
2023-03-30T03:26:46.278Z,14.87
2023-03-30T03:29:50.112Z,13.83
2023-03-30T03:32:55.179Z,13.13
2023-03-30T03:36:00.557Z,14.90
2023-03-30T03:39:04.098Z,10.57
2023-03-30T03:42:07.634Z,14.02
2023-03-30T03:45:11.468Z,11.60
2023-03-30T03:48:24.374Z,14.13
2023-03-30T03:51:27.141Z,13.20
2023-03-30T03:54:29.906Z,13.05
2023-03-30T03:57:32.524Z,15.15
2023-03-30T04:00:35.529Z,11.77
2023-03-30T04:03:38.362Z,11.82
2023-03-30T04:06:41.984Z,14.82
2023-03-30T04:09:44.788Z,11.05
2023-03-30T04:12:47.942Z,17.60
2023-03-30T04:15:51.295Z,13.87
2023-03-30T04:18:54.327Z,12.10
2023-03-30T04:21:59.097Z,17.70
2023-03-30T04:25:04.277Z,12.15
2023-03-30T04:28:08.204Z,10.77
2023-03-30T04:31:11.135Z,12.37
2023-03-30T04:34:14.866Z,13.30
2023-03-30T04:37:18.143Z,12.35
2023-03-30T04:40:20.978Z,16.00
2023-03-30T04:43:24.793Z,15.63
2023-03-30T04:46:28.336Z,14.27
2023-03-30T04:49:31.365Z,11.60
2023-03-30T04:52:34.239Z,14.10
2023-03-30T04:55:37.720Z,12.00
2023-03-30T04:58:40.636Z,13.18
2023-03-30T05:01:43.460Z,14.00
2023-03-30T05:04:46.499Z,11.23
2023-03-30T05:07:49.473Z,13.48
2023-03-30T05:10:52.646Z,11.23
2023-03-30T05:14:00.713Z,12.13
2023-03-30T05:17:03.680Z,13.47
2023-03-30T05:20:10.551Z,10.85
2023-03-30T05:23:16.195Z,15.95
2023-03-30T05:26:19.576Z,12.43
2023-03-30T05:29:22.828Z,12.32
2023-03-30T05:32:25.412Z,17.80
2023-03-30T05:35:28.419Z,12.07
2023-03-30T05:38:31.269Z,12.27
2023-03-30T05:41:37.326Z,13.25
2023-03-30T05:44:39.970Z,16.30
2023-03-30T05:47:43.584Z,13.50
2023-03-30T05:50:49.699Z,13.75
2023-03-30T05:53:52.688Z,10.45
2023-03-30T05:56:56.433Z,14.70
2023-03-30T06:00:00.512Z,15.80
2023-03-30T06:03:04.844Z,11.80
2023-03-30T06:06:08.283Z,13.40
2023-03-30T06:09:11.408Z,10.52
2023-03-30T06:12:14.153Z,12.05
2023-03-30T06:15:16.846Z,13.35
2023-03-30T06:18:20.442Z,17.30
2023-03-30T06:21:25.288Z,16.12
2023-03-30T06:24:28.764Z,17.02
2023-03-30T06:27:33.036Z,15.07
2023-03-30T06:30:36.024Z,17.00
2023-03-30T06:33:41.522Z,14.40
2023-03-30T06:36:46.631Z,10.77
2023-03-30T06:39:50.978Z,14.85
2023-03-30T06:42:53.961Z,13.40
2023-03-30T06:45:57.494Z,12.40
2023-03-30T06:49:01.405Z,13.23
2023-03-30T06:52:08.159Z,13.07
2023-03-30T06:55:12.003Z,16.42
2023-03-30T06:58:14.566Z,17.65
2023-03-30T07:01:17.581Z,12.82
2023-03-30T07:04:23.527Z,13.80
2023-03-30T07:07:29.495Z,13.00
2023-03-30T07:10:32.196Z,16.12
2023-03-30T07:13:35.831Z,19.20
2023-03-30T07:16:38.613Z,13.25
2023-03-30T07:19:41.634Z,16.20
2023-03-30T07:22:44.177Z,18.00
2023-03-30T07:25:47.115Z,13.82
2023-03-30T07:28:51.762Z,14.10
2023-03-30T07:31:56.720Z,15.60
2023-03-30T07:34:59.296Z,15.43
2023-03-30T07:38:03.793Z,16.62
2023-03-30T07:41:09.232Z,14.52
2023-03-30T07:44:12.706Z,13.65
2023-03-30T07:47:15.830Z,11.75
2023-03-30T07:50:18.915Z,15.27
2023-03-30T07:53:22.804Z,11.35
2023-03-30T07:56:27.139Z,14.10
2023-03-30T07:59:29.981Z,15.07
2023-03-30T08:02:33.367Z,15.00
2023-03-30T08:05:36.336Z,14.50
2023-03-30T08:08:41.124Z,14.13
2023-03-30T08:11:44.485Z,15.82
2023-03-30T08:14:46.948Z,26.25
2023-03-30T08:17:49.726Z,19.90
2023-03-30T08:20:53.682Z,14.10
2023-03-30T08:23:58.913Z,14.98
2023-03-30T08:27:02.457Z,14.30
2023-03-30T08:30:05.910Z,11.48
2023-03-30T08:33:09.176Z,13.82
2023-03-30T08:36:13.056Z,14.47
2023-03-30T08:39:15.876Z,16.45
2023-03-30T08:42:49.681Z,17.10
2023-03-30T08:45:52.747Z,13.65
2023-03-30T08:48:59.893Z,16.90
2023-03-30T08:52:04.822Z,13.10
2023-03-30T08:55:21.425Z,21.08
2023-03-30T08:58:42.267Z,15.40
2023-03-30T09:02:15.910Z,12.85
2023-03-30T09:05:32.589Z,15.98
2023-03-30T09:08:36.184Z,14.23
2023-03-30T09:11:40.053Z,16.85
2023-03-30T09:14:50.639Z,16.35
2023-03-30T09:18:19.887Z,17.12
2023-03-30T09:21:28.034Z,18.02
2023-03-30T09:24:30.570Z,15.23
2023-03-30T09:28:02.389Z,15.68
2023-03-30T09:31:30.065Z,18.23
2023-03-30T09:34:41.248Z,15.77
2023-03-30T09:37:44.332Z,14.95
2023-03-30T09:41:07.220Z,13.67
2023-03-30T09:44:24.124Z,14.93
2023-03-30T09:47:35.572Z,14.00
2023-03-30T09:50:45.510Z,17.23
2023-03-30T09:53:51.924Z,20.12
2023-03-30T09:56:55.324Z,16.63
2023-03-30T10:00:01.872Z,18.10
2023-03-30T10:03:22.914Z,16.85
2023-03-30T10:06:26.130Z,16.15
2023-03-30T10:09:29.704Z,14.32
2023-03-30T10:12:33.071Z,16.90
2023-03-30T10:15:39.893Z,18.23
2023-03-30T10:18:46.356Z,17.87
2023-03-30T10:21:55.205Z,18.33
2023-03-30T10:24:58.344Z,16.33
2023-03-30T10:28:06.869Z,17.70
2023-03-30T10:31:16.407Z,20.67
2023-03-30T10:34:30.336Z,17.08
2023-03-30T10:37:43.205Z,16.27
2023-03-30T10:40:47.468Z,15.10
2023-03-30T10:43:51.603Z,18.67
2023-03-30T10:47:16.327Z,18.42
2023-03-30T10:50:27.924Z,16.67
2023-03-30T10:53:58.516Z,19.27
2023-03-30T10:57:19.632Z,18.92
2023-03-30T11:00:34.502Z,19.50
2023-03-30T11:03:40.812Z,20.40
2023-03-30T11:06:44.750Z,16.75
2023-03-30T11:09:54.929Z,17.35
2023-03-30T11:13:05.136Z,21.08
2023-03-30T11:16:34.827Z,18.70
2023-03-30T11:19:44.021Z,17.70
2023-03-30T11:22:55.550Z,22.87
2023-03-30T11:26:00.826Z,18.65
2023-03-30T11:29:33.143Z,20.65
2023-03-30T11:32:57.662Z,16.93
2023-03-30T11:36:06.937Z,16.92
2023-03-30T11:39:30.966Z,20.20
2023-03-30T11:42:37.576Z,17.40
2023-03-30T11:46:04.626Z,17.77
2023-03-30T11:49:39.577Z,19.37
2023-03-30T11:52:49.639Z,17.08
2023-03-30T11:56:06.303Z,17.42
2023-03-30T11:59:41.103Z,16.50
2023-03-30T12:03:02.723Z,16.90
2023-03-30T12:06:31.122Z,19.63
2023-03-30T12:10:02.339Z,17.15
2023-03-30T12:13:13.786Z,26.30
2023-03-30T12:16:37.293Z,17.27
2023-03-30T12:19:56.190Z,16.90
2023-03-30T12:23:34.793Z,15.20
2023-03-30T12:26:38.640Z,17.10
2023-03-30T12:33:10.424Z,17.67
2023-03-30T12:36:41.390Z,15.10
2023-03-30T12:40:08.799Z,18.33
2023-03-30T12:43:24.202Z,18.77
2023-03-30T12:46:36.128Z,18.02
2023-03-30T12:49:58.926Z,14.93
2023-03-30T12:53:44.414Z,19.75
2023-03-30T12:56:56.354Z,18.60
2023-03-30T13:00:22.071Z,17.30
2023-03-30T13:03:30.270Z,18.95
2023-03-30T13:06:37.279Z,17.05
2023-03-30T13:10:06.339Z,24.60
2023-03-30T13:13:24.267Z,16.63
2023-03-30T13:17:08.449Z,17.37
2023-03-30T13:20:30.064Z,15.15
2023-03-30T13:23:35.887Z,14.27
2023-03-30T13:26:44.801Z,15.77
2023-03-30T13:30:09.916Z,13.30
2023-03-30T13:33:20.917Z,15.65
2023-03-30T13:36:30.000Z,19.05
2023-03-30T13:39:42.532Z,20.45
2023-03-30T13:42:53.389Z,17.02
2023-03-30T13:46:15.624Z,12.30
2023-03-30T13:49:56.639Z,16.62
2023-03-30T13:53:03.127Z,14.23
2023-03-30T13:56:09.543Z,15.65
2023-03-30T13:59:16.754Z,19.15
2023-03-30T14:02:22.386Z,14.20
2023-03-30T14:05:28.067Z,15.50
2023-03-30T14:08:35.649Z,14.25
2023-03-30T14:12:03.031Z,11.95
2023-03-30T14:15:35.310Z,11.12
2023-03-30T14:18:38.426Z,16.83
2023-03-30T14:21:44.541Z,12.15
2023-03-30T14:25:02.177Z,16.80
2023-03-30T14:28:22.631Z,15.07
2023-03-30T14:31:29.383Z,17.15
2023-03-30T14:34:33.584Z,13.33
2023-03-30T14:37:37.447Z,19.10
2023-03-30T14:40:40.795Z,15.85
2023-03-30T14:43:54.080Z,15.43
2023-03-30T14:46:56.793Z,14.65
2023-03-30T14:50:04.156Z,21.13
2023-03-30T14:53:08.820Z,17.62
2023-03-30T14:56:12.213Z,17.23
2023-03-30T14:59:18.964Z,14.85
2023-03-30T15:02:28.237Z,14.30
2023-03-30T15:05:36.683Z,14.10
2023-03-30T15:08:41.003Z,13.55
2023-03-30T15:11:47.625Z,14.65
2023-03-30T15:14:52.569Z,13.98
2023-03-30T15:17:55.542Z,13.70
2023-03-30T15:21:00.454Z,13.70
2023-03-30T15:24:07.704Z,14.13
2023-03-30T15:27:16.431Z,16.45
2023-03-30T15:30:44.411Z,16.05
2023-03-30T15:33:54.276Z,15.00
2023-03-30T15:36:57.381Z,13.70
2023-03-30T15:40:00.456Z,16.08
2023-03-30T15:43:16.903Z,15.02
2023-03-30T15:46:20.226Z,13.15
2023-03-30T15:49:28.602Z,13.90
2023-03-30T15:52:37.563Z,20.63
2023-03-30T15:55:41.602Z,18.33
2023-03-30T15:58:44.693Z,15.80
2023-03-30T16:01:47.115Z,15.18
2023-03-30T16:04:50.453Z,16.48
2023-03-30T16:07:54.523Z,12.80
2023-03-30T16:10:57.908Z,16.45
2023-03-30T16:14:00.824Z,14.13
2023-03-30T16:17:04.551Z,16.02
2023-03-30T16:20:14.922Z,15.73
2023-03-30T16:23:17.789Z,19.77
2023-03-30T16:26:21.704Z,22.95
2023-03-30T16:29:25.340Z,14.07
2023-03-30T16:32:32.133Z,14.87
2023-03-30T16:35:44.231Z,20.92
2023-03-30T16:38:47.990Z,14.03
2023-03-30T16:41:51.949Z,21.98
2023-03-30T16:44:54.690Z,17.50
2023-03-30T16:48:00.270Z,17.35
2023-03-30T16:51:03.741Z,18.42
2023-03-30T16:54:13.614Z,16.03
2023-03-30T16:57:22.711Z,18.48
2023-03-30T17:00:29.957Z,19.85
2023-03-30T17:03:32.387Z,17.12
2023-03-30T17:06:35.381Z,21.50
2023-03-30T17:09:37.868Z,17.90
2023-03-30T17:12:41.750Z,20.95
2023-03-30T17:15:44.326Z,20.55
2023-03-30T17:18:47.168Z,18.23
2023-03-30T17:21:50.384Z,17.70
2023-03-30T17:24:53.182Z,19.37
2023-03-30T17:27:57.514Z,18.35
2023-03-30T17:31:03.107Z,19.70
2023-03-30T17:34:07.317Z,19.20
2023-03-30T17:37:10.790Z,18.17
2023-03-30T17:40:15.468Z,21.13
2023-03-30T17:43:18.722Z,19.55
2023-03-30T17:46:21.524Z,21.48
2023-03-30T17:49:24.781Z,22.23
2023-03-30T17:52:30.895Z,23.27
2023-03-30T17:55:33.858Z,19.87
2023-03-30T17:58:36.495Z,19.65
2023-03-30T18:01:40.064Z,23.70
2023-03-30T18:04:42.951Z,19.50
2023-03-30T18:07:45.861Z,21.73
2023-03-30T18:10:51.723Z,23.70
2023-03-30T18:13:54.120Z,20.75
2023-03-30T18:17:05.975Z,26.45
2023-03-30T18:20:22.755Z,23.15
2023-03-30T18:23:25.932Z,24.00
2023-03-30T18:26:28.879Z,22.20
2023-03-30T18:29:33.926Z,27.37
2023-03-30T18:32:46.620Z,28.27
2023-03-30T18:35:52.581Z,22.30
2023-03-30T18:38:55.408Z,24.63
2023-03-30T18:41:58.562Z,27.13
2023-03-30T18:45:01.138Z,27.67
2023-03-30T18:48:05.800Z,24.02
2023-03-30T18:51:11.675Z,28.30
2023-03-30T18:54:14.619Z,27.33
2023-03-30T18:57:17.052Z,25.23
2023-03-30T19:00:24.185Z,28.17
2023-03-30T19:03:28.390Z,29.95
2023-03-30T19:06:31.305Z,28.80
2023-03-30T19:09:42.610Z,32.95
2023-03-30T19:12:48.140Z,28.50
2023-03-30T19:15:52.076Z,27.35
2023-03-30T19:18:54.938Z,31.42
2023-03-30T19:21:58.860Z,27.37
2023-03-30T19:25:01.729Z,29.20
2023-03-30T19:28:05.326Z,28.53
2023-03-30T19:31:13.196Z,25.48
2023-03-30T19:34:17.156Z,27.23
2023-03-30T19:37:19.985Z,24.70
2023-03-30T19:40:23.020Z,23.80
2023-03-30T19:43:25.917Z,25.87
2023-03-30T19:46:28.437Z,22.67
2023-03-30T19:49:31.395Z,25.15
2023-03-30T19:52:33.913Z,22.92
2023-03-30T19:55:37.702Z,24.12
2023-03-30T19:58:40.283Z,22.70
2023-03-30T20:01:43.056Z,23.75
2023-03-30T20:04:46.827Z,23.48
2023-03-30T20:07:50.104Z,25.12
2023-03-30T20:10:53.925Z,24.25
2023-03-30T20:13:56.788Z,24.00
2023-03-30T20:17:00.541Z,22.87
2023-03-30T20:20:07.256Z,26.95
2023-03-30T20:23:10.468Z,23.60
2023-03-30T20:26:16.762Z,23.20
2023-03-30T20:29:20.002Z,27.73
2023-03-30T20:32:22.586Z,25.55
2023-03-30T20:35:25.730Z,26.67
2023-03-30T20:38:28.256Z,24.67
2023-03-30T20:41:38.034Z,23.15
2023-03-30T20:44:41.807Z,25.67
2023-03-30T20:47:50.063Z,21.90
2023-03-30T20:50:56.834Z,28.33
2023-03-30T20:54:00.060Z,24.70
2023-03-30T20:57:02.947Z,25.35
2023-03-30T21:00:09.632Z,25.27
2023-03-30T21:03:14.655Z,23.23
2023-03-30T21:06:19.655Z,21.52
2023-03-30T21:09:22.120Z,23.87
2023-03-30T21:12:25.003Z,23.80
2023-03-30T21:15:27.533Z,24.77
2023-03-30T21:18:30.436Z,29.17
2023-03-30T21:21:37.161Z,28.70
2023-03-30T21:24:39.845Z,24.63
2023-03-30T21:27:42.524Z,22.60
2023-03-30T21:30:45.578Z,22.47
2023-03-30T21:33:48.106Z,23.73
2023-03-30T21:36:52.231Z,23.38
2023-03-30T21:39:54.862Z,26.23
2023-03-30T21:42:57.587Z,22.48
2023-03-30T21:46:02.747Z,22.10
2023-03-30T21:49:05.792Z,26.67
2023-03-30T21:52:08.296Z,24.92
2023-03-30T21:55:11.052Z,26.12
2023-03-30T21:58:13.478Z,24.20
2023-03-30T22:01:17.365Z,24.07
2023-03-30T22:04:20.028Z,22.40
2023-03-30T22:07:22.483Z,20.98
2023-03-30T22:10:25.873Z,22.58
2023-03-30T22:13:28.780Z,26.77
2023-03-30T22:16:33.333Z,23.03
2023-03-30T22:19:35.954Z,23.27
2023-03-30T22:22:39.139Z,25.62
2023-03-30T22:25:42.206Z,21.60
2023-03-30T22:28:45.230Z,24.02
2023-03-30T22:31:47.759Z,22.00
2023-03-30T22:34:51.286Z,23.83
2023-03-30T22:37:53.696Z,27.17
2023-03-30T22:41:04.603Z,18.98
2023-03-30T22:44:09.626Z,20.98
2023-03-30T22:47:12.836Z,20.47
2023-03-30T22:50:15.233Z,24.85
2023-03-30T22:53:18.334Z,24.95
2023-03-30T22:56:20.941Z,22.52
2023-03-30T22:59:23.645Z,24.42
2023-03-30T23:02:26.078Z,26.70
2023-03-30T23:05:28.857Z,25.98
2023-03-30T23:08:32.158Z,26.70
2023-03-30T23:11:35.099Z,27.70
2023-03-30T23:14:38.054Z,28.20
2023-03-30T23:17:41.440Z,23.30
2023-03-30T23:20:46.762Z,26.02
2023-03-30T23:23:49.791Z,24.73
2023-03-30T23:26:52.285Z,27.37
2023-03-30T23:29:55.110Z,27.25
2023-03-30T23:32:57.784Z,24.87
2023-03-30T23:36:00.566Z,26.00
2023-03-30T23:39:03.077Z,28.92
2023-03-30T23:42:06.499Z,23.87
2023-03-30T23:45:09.205Z,25.35
2023-03-30T23:48:11.987Z,27.57
2023-03-30T23:51:14.570Z,24.80
2023-03-30T23:54:18.248Z,25.30
2023-03-30T23:57:20.811Z,24.17
